Time;durP1;ratioP1;P1;durP2;ratioP2;P2;SDS_P1;SDS_P2;PMS_P1;PMS_P2;Temp;Humidity;BMP_temperature;BMP_pressure;BME280_temperature;BME280_humidity;BME280_pressure;Samples;Min_cycle;Max_cycle;Signal;HPM_P1;HPM_P2
2022/06/09 00:00:01;;;;;;;0.20;0.20;;;;;;;15.10;99.03;94877.66;4358527;32;20201;-61
2022/06/09 00:02:29;;;;;;;0.60;0.30;;;;;;;15.23;98.61;94873.06;4346989;32;20200;-61
2022/06/09 00:04:55;;;;;;;0.10;0.10;;;;;;;15.26;98.22;94879.66;4357198;32;20212;-61
2022/06/09 00:07:25;;;;;;;0.10;0.10;;;;;;;15.18;98.55;94877.84;4344832;32;20193;-61
2022/06/09 00:09:57;;;;;;;0.20;0.20;;;;;;;15.21;98.59;94880.66;4344461;32;20212;-61
2022/06/09 00:12:23;;;;;;;0.30;0.30;;;;;;;15.08;98.84;94874.53;4344831;32;20212;-61
2022/06/09 00:14:49;;;;;;;0.13;0.13;;;;;;;15.23;97.91;94872.28;4359812;32;20189;-61
2022/06/09 00:17:16;;;;;;;0.10;0.10;;;;;;;15.13;98.52;94870.84;4358602;32;20235;-61
2022/06/09 00:19:44;;;;;;;0.20;0.20;;;;;;;15.06;98.74;94874.06;4357871;32;20235;-61
2022/06/09 00:22:10;;;;;;;0.30;0.30;;;;;;;15.13;98.51;94873.53;4358330;32;20279;-61
2022/06/09 00:24:37;;;;;;;0.20;0.20;;;;;;;14.99;98.88;94876.50;4363547;32;20201;-61
2022/06/09 00:27:03;;;;;;;0.13;0.10;;;;;;;15.02;99.40;94872.37;4358881;32;20279;-60
2022/06/09 00:29:30;;;;;;;0.30;0.30;;;;;;;15.15;98.63;94879.31;4365677;32;20196;-61
2022/06/09 00:31:55;;;;;;;0.10;0.10;;;;;;;15.19;98.63;94876.75;4346989;32;20188;-61
2022/06/09 00:34:21;;;;;;;0.17;0.17;;;;;;;15.07;98.79;94882.88;4347657;32;20249;-61
2022/06/09 00:36:47;;;;;;;0.40;0.40;;;;;;;15.17;98.89;94884.34;4362993;32;20208;-61
2022/06/09 00:39:14;;;;;;;0.00;0.00;;;;;;;15.10;99.02;94885.66;4360699;32;20222;-61
2022/06/09 00:41:42;;;;;;;0.57;0.27;;;;;;;15.00;99.10;94877.28;4360625;32;20255;-61
2022/06/09 00:44:26;;;;;;;0.10;0.10;;;;;;;14.97;99.53;94878.72;4347271;32;20287;-61
2022/06/09 00:46:57;;;;;;;0.10;0.10;;;;;;;14.99;99.50;94881.84;4352414;32;20261;-61
2022/06/09 00:49:34;;;;;;;0.00;0.00;;;;;;;14.81;100.00;94885.81;4347277;32;20215;-61
2022/06/09 00:52:03;;;;;;;0.20;0.20;;;;;;;14.74;100.00;94894.37;4360674;32;20199;-61
2022/06/09 00:54:33;;;;;;;0.10;0.10;;;;;;;14.82;100.00;94889.25;4360573;32;20219;-61
2022/06/09 00:57:24;;;;;;;0.27;0.27;;;;;;;14.83;100.00;94888.94;4347221;32;20196;-61
2022/06/09 00:59:56;;;;;;;0.20;0.20;;;;;;;14.88;100.00;94883.41;4355365;32;20212;-62
2022/06/09 01:02:23;;;;;;;0.20;0.20;;;;;;;14.81;100.00;94885.81;4336515;32;20192;-62
2022/06/09 01:04:52;;;;;;;0.00;0.00;;;;;;;14.78;100.00;94886.47;4346218;32;20261;-61
2022/06/09 01:07:21;;;;;;;0.10;0.10;;;;;;;14.78;100.00;94886.47;4350341;32;20189;-63
2022/06/09 01:09:47;;;;;;;0.10;0.10;;;;;;;14.64;100.00;94891.34;4362747;32;20181;-61
2022/06/09 01:12:33;;;;;;;0.10;0.10;;;;;;;14.63;100.00;94890.56;4346971;32;20230;-61
2022/06/09 01:15:13;;;;;;;0.13;0.13;;;;;;;14.70;100.00;94884.69;4360557;32;20212;-61
2022/06/09 01:17:53;;;;;;;0.20;0.20;;;;;;;14.74;100.00;94893.59;4338961;32;20276;-61
2022/06/09 01:20:28;;;;;;;0.23;0.23;;;;;;;14.72;100.00;94893.94;4360762;32;20254;-62
2022/06/09 01:23:26;;;;;;;0.20;0.20;;;;;;;14.69;100.00;94901.81;4361056;32;20203;-61
2022/06/09 01:26:29;;;;;;;0.30;0.30;;;;;;;14.69;100.00;94891.91;4358617;32;20246;-61
2022/06/09 01:29:16;;;;;;;1.80;0.30;;;;;;;14.56;100.00;94903.66;4368219;32;20314;-60
2022/06/09 01:31:53;;;;;;;0.20;0.20;;;;;;;14.58;100.00;94895.31;4347675;32;20185;-61
2022/06/09 01:34:36;;;;;;;0.30;0.30;;;;;;;14.62;100.00;94898.88;4358188;32;20239;-61
2022/06/09 01:37:22;;;;;;;0.30;0.30;;;;;;;14.49;100.00;94899.97;4347626;32;20215;-61
2022/06/09 01:39:54;;;;;;;0.30;0.30;;;;;;;14.53;100.00;94900.88;4359779;32;20237;-61
2022/06/09 01:42:20;;;;;;;0.47;0.47;;;;;;;14.47;100.00;94896.84;4347120;32;20286;-61
2022/06/09 01:44:48;;;;;;;0.30;0.30;;;;;;;14.62;100.00;94893.56;4361408;32;20240;-61
2022/06/09 01:47:17;;;;;;;0.30;0.30;;;;;;;14.52;100.00;94896.66;4360218;32;20201;-61
2022/06/09 01:49:44;;;;;;;0.60;0.40;;;;;;;14.58;100.00;94897.97;4345776;32;20193;-61
2022/06/09 01:52:10;;;;;;;0.73;0.73;;;;;;;14.66;100.00;94899.81;4359038;32;20278;-61
2022/06/09 01:54:40;;;;;;;0.37;0.37;;;;;;;14.71;100.00;94899.59;4359783;32;20185;-61
2022/06/09 01:57:18;;;;;;;0.93;0.63;;;;;;;14.71;100.00;94894.25;4345036;32;20185;-61
2022/06/09 01:59:56;;;;;;;0.30;0.30;;;;;;;14.65;100.00;94898.25;4362210;32;20216;-61
2022/06/09 02:02:27;;;;;;;0.30;0.30;;;;;;;14.65;100.00;94898.25;4370989;32;20200;-61
2022/06/09 02:05:00;;;;;;;0.33;0.33;;;;;;;14.58;100.00;94892.63;4357221;32;20203;-61
2022/06/09 02:07:30;;;;;;;0.97;0.70;;;;;;;14.70;100.00;94895.37;4358904;32;20260;-62
2022/06/09 02:09:55;;;;;;;0.20;0.20;;;;;;;14.62;100.00;94893.56;4352036;32;20247;-61
2022/06/09 02:12:27;;;;;;;0.40;0.33;;;;;;;14.71;100.00;94891.59;4359320;32;20193;-62
2022/06/09 02:14:58;;;;;;;0.23;0.23;;;;;;;14.71;100.00;94892.38;4343656;32;20193;-61
2022/06/09 02:17:23;;;;;;;0.60;0.60;;;;;;;14.54;100.00;94894.44;4352712;32;20231;-61
2022/06/09 02:19:51;;;;;;;0.50;0.50;;;;;;;14.61;100.00;94897.31;4361512;32;20200;-62
2022/06/09 02:22:18;;;;;;;0.30;0.30;;;;;;;14.53;100.00;94892.88;4361684;32;20186;-61
2022/06/09 02:24:44;;;;;;;0.43;0.43;;;;;;;14.61;100.00;94900.78;4359091;32;20224;-61
2022/06/09 02:27:10;;;;;;;0.30;0.30;;;;;;;14.48;100.00;94901.84;4359676;32;20269;-61
2022/06/09 02:29:35;;;;;;;0.60;0.60;;;;;;;14.52;100.00;94893.97;4359052;32;20243;-61
2022/06/09 02:32:01;;;;;;;0.93;0.93;;;;;;;14.59;100.00;94895.00;4358510;32;20181;-61
2022/06/09 02:34:27;;;;;;;0.50;0.50;;;;;;;14.61;100.00;94897.31;4359165;32;20230;-61
2022/06/09 02:36:52;;;;;;;0.57;0.50;;;;;;;14.59;100.00;94892.31;4359057;32;20244;-61
2022/06/09 02:39:19;;;;;;;0.67;0.67;;;;;;;14.64;100.00;94894.78;4349455;32;20193;-61
2022/06/09 02:41:45;;;;;;;0.67;0.53;;;;;;;14.50;100.00;94893.53;4366840;32;20196;-61
2022/06/09 02:44:10;;;;;;;0.40;0.30;;;;;;;14.58;100.00;94900.66;4370064;32;20292;-61
2022/06/09 02:46:36;;;;;;;0.30;0.30;;;;;;;14.58;100.00;94903.31;4358770;32;20253;-61
2022/06/09 02:49:01;;;;;;;2.07;0.60;;;;;;;14.59;100.00;94903.00;4357338;32;20180;-61
2022/06/09 02:51:30;;;;;;;2.83;0.80;;;;;;;14.43;100.00;94907.38;4343306;32;20213;-61
2022/06/09 02:53:58;;;;;;;0.43;0.43;;;;;;;14.55;100.00;94904.00;4343951;32;20193;-61
2022/06/09 02:56:23;;;;;;;0.10;0.10;;;;;;;14.54;100.00;94902.44;4330041;32;20215;-61
2022/06/09 02:58:49;;;;;;;0.40;0.40;;;;;;;14.44;100.00;94907.06;4345065;32;20193;-63
2022/06/09 03:01:15;;;;;;;0.40;0.40;;;;;;;14.47;100.00;94899.50;4345730;32;20245;-61
2022/06/09 03:03:41;;;;;;;0.67;0.67;;;;;;;14.54;100.00;94907.78;4334269;32;20350;-60
2022/06/09 03:06:11;;;;;;;0.20;0.20;;;;;;;14.44;100.00;94907.06;4336484;32;20181;-60
2022/06/09 03:08:38;;;;;;;0.20;0.20;;;;;;;14.50;100.00;94914.88;4329993;32;20205;-60
2022/06/09 03:11:10;;;;;;;0.40;0.40;;;;;;;14.53;100.00;94914.22;4329716;32;20205;-60
2022/06/09 03:13:39;;;;;;;0.30;0.30;;;;;;;14.52;100.00;94920.66;4317189;32;20189;-60
2022/06/09 03:16:06;;;;;;;1.07;0.73;;;;;;;14.46;100.00;94925.41;4353533;32;20232;-61
2022/06/09 03:18:33;;;;;;;0.50;0.50;;;;;;;14.43;100.00;94928.75;4344127;32;20197;-61
2022/06/09 03:20:58;;;;;;;0.83;0.37;;;;;;;14.48;100.00;94928.53;4343685;32;20189;-61
2022/06/09 03:23:23;;;;;;;0.40;0.40;;;;;;;14.39;100.00;94931.25;4344316;32;20207;-61
2022/06/09 03:25:50;;;;;;;0.50;0.50;;;;;;;14.44;100.00;94928.41;4333194;33;20212;-60
2022/06/09 03:28:17;;;;;;;0.67;0.67;;;;;;;14.57;100.00;94926.56;4336050;33;20189;-61
2022/06/09 03:30:44;;;;;;;0.40;0.40;;;;;;;14.46;100.00;94921.97;4329522;33;20201;-61
2022/06/09 03:33:11;;;;;;;0.50;0.50;;;;;;;14.36;100.00;94923.09;4330100;33;20318;-60
2022/06/09 03:35:38;;;;;;;0.43;0.43;;;;;;;14.38;100.00;94924.34;4352620;32;20234;-60
2022/06/09 03:38:04;;;;;;;0.10;0.10;;;;;;;14.30;100.00;94927.88;4343926;32;20193;-61
2022/06/09 03:40:31;;;;;;;0.20;0.20;;;;;;;14.36;100.00;94934.56;4343658;32;20215;-61
2022/06/09 03:43:02;;;;;;;0.20;0.20;;;;;;;14.46;100.00;94932.66;4342771;33;20181;-61
2022/06/09 03:45:30;;;;;;;0.60;0.60;;;;;;;14.37;100.00;94936.12;4329786;33;20216;-61
2022/06/09 03:47:57;;;;;;;0.00;0.00;;;;;;;14.39;100.00;94933.91;4329713;32;20197;-61
2022/06/09 03:50:26;;;;;;;1.23;0.70;;;;;;;14.36;100.00;94931.09;4351079;32;20185;-61
2022/06/09 03:52:54;;;;;;;0.40;0.40;;;;;;;14.38;100.00;94935.03;4358664;32;20220;-60
2022/06/09 03:55:20;;;;;;;0.40;0.40;;;;;;;14.42;100.00;94935.97;4332885;32;20185;-62
2022/06/09 03:57:47;;;;;;;0.37;0.37;;;;;;;14.36;100.00;94944.47;4349994;32;20193;-61
2022/06/09 04:00:18;;;;;;;0.50;0.50;;;;;;;14.36;100.00;94937.22;4345181;32;20207;-61
2022/06/09 04:02:44;;;;;;;0.73;0.50;;;;;;;14.48;100.00;94939.22;4344667;32;20181;-61
2022/06/09 04:05:13;;;;;;;0.40;0.40;;;;;;;14.58;100.00;94943.38;4361269;32;20268;-61
2022/06/09 04:07:39;;;;;;;0.67;0.67;;;;;;;14.43;100.00;94948.19;4353776;32;20185;-61
2022/06/09 04:10:06;;;;;;;0.50;0.50;;;;;;;14.51;100.00;94951.91;4360861;32;20270;-61
2022/06/09 04:12:31;;;;;;;0.67;0.57;;;;;;;14.35;100.00;94954.34;4348399;32;20201;-61
2022/06/09 04:14:57;;;;;;;0.13;0.13;;;;;;;14.55;100.00;94949.38;4361276;32;20185;-61
2022/06/09 04:17:22;;;;;;;0.40;0.40;;;;;;;14.55;100.00;94952.81;4359708;32;20182;-61
2022/06/09 04:19:48;;;;;;;0.27;0.27;;;;;;;14.60;100.00;94954.50;4366776;32;20201;-61
2022/06/09 04:22:15;;;;;;;0.63;0.50;;;;;;;14.61;100.00;94956.06;4360511;32;20208;-61
2022/06/09 04:24:40;;;;;;;3.13;0.47;;;;;;;14.53;100.00;94960.38;4352301;32;20411;-61
2022/06/09 04:27:06;;;;;;;0.47;0.47;;;;;;;14.62;100.00;94960.28;4347581;32;20196;-61
2022/06/09 04:29:31;;;;;;;0.20;0.20;;;;;;;14.58;100.00;94973.50;4358940;32;20266;-61
2022/06/09 04:31:56;;;;;;;0.10;0.10;;;;;;;14.56;100.00;94967.72;4347329;32;20181;-61
2022/06/09 04:34:22;;;;;;;0.23;0.23;;;;;;;14.43;100.00;94977.56;4359401;32;20185;-61
2022/06/09 04:36:47;;;;;;;0.30;0.30;;;;;;;14.28;100.00;94975.44;4349399;32;20303;-61
2022/06/09 04:39:14;;;;;;;0.20;0.20;;;;;;;14.34;100.00;94982.12;4347233;32;20192;-61
2022/06/09 04:41:39;;;;;;;0.00;0.00;;;;;;;14.37;100.00;94981.50;4372859;32;20231;-61
2022/06/09 04:44:05;;;;;;;0.20;0.20;;;;;;;14.35;100.00;94978.37;4360954;32;20232;-61
2022/06/09 04:46:32;;;;;;;1.33;0.30;;;;;;;14.30;100.00;94981.25;4356099;32;20197;-61
2022/06/09 04:48:57;;;;;;;0.43;0.37;;;;;;;14.32;100.00;94984.38;4368154;32;20207;-61
2022/06/09 04:51:25;;;;;;;0.10;0.10;;;;;;;14.40;100.00;94983.53;4363738;32;20189;-61
2022/06/09 04:53:51;;;;;;;0.73;0.47;;;;;;;14.35;100.00;94986.37;4346639;32;20207;-61
2022/06/09 04:56:20;;;;;;;0.30;0.30;;;;;;;14.38;100.00;94990.28;4361798;32;20193;-60
2022/06/09 04:58:47;;;;;;;4.63;0.80;;;;;;;14.37;100.00;94994.06;4347400;32;20259;-61
2022/06/09 05:01:17;;;;;;;0.57;0.57;;;;;;;14.46;99.99;94996.69;4340860;32;20255;-61
2022/06/09 05:03:44;;;;;;;0.70;0.50;;;;;;;14.42;100.00;94993.91;4351436;32;20197;-61
2022/06/09 05:06:11;;;;;;;0.57;0.57;;;;;;;14.56;99.78;94991.75;4359774;32;20185;-61
2022/06/09 05:08:38;;;;;;;0.10;0.10;;;;;;;14.47;99.44;94998.25;4350105;32;20232;-61
2022/06/09 05:11:04;;;;;;;1.30;0.50;;;;;;;14.48;100.00;94991.81;4341477;32;20185;-61
2022/06/09 05:13:29;;;;;;;0.20;0.20;;;;;;;14.58;100.00;94996.75;4360285;32;20193;-61
2022/06/09 05:15:56;;;;;;;0.30;0.30;;;;;;;14.61;99.50;94996.88;4359539;32;20251;-61
2022/06/09 05:18:24;;;;;;;0.40;0.40;;;;;;;14.60;99.37;95002.56;4361061;32;20203;-61
2022/06/09 05:20:52;;;;;;;0.30;0.30;;;;;;;14.53;98.65;95003.09;4359095;32;20189;-61
2022/06/09 05:23:19;;;;;;;0.37;0.37;;;;;;;14.55;98.86;95000.09;4360017;32;20207;-61
2022/06/09 05:25:47;;;;;;;0.30;0.30;;;;;;;14.50;99.80;95009.09;4354129;32;20189;-61
2022/06/09 05:28:15;;;;;;;0.17;0.17;;;;;;;14.61;99.39;95009.47;4355099;32;20244;-61
2022/06/09 05:30:42;;;;;;;0.43;0.43;;;;;;;14.55;99.01;95010.78;4346165;32;20287;-61
2022/06/09 05:33:09;;;;;;;0.43;0.43;;;;;;;14.59;99.18;95012.44;4359741;32;20221;-61
2022/06/09 05:35:36;;;;;;;0.47;0.47;;;;;;;14.70;98.42;95012.84;4346339;32;20389;-61
2022/06/09 05:46:19;;;;;;;0.03;0.03;;;;;;;14.63;98.36;95023.25;4359993;32;20288;-61
2022/06/09 05:48:46;;;;;;;0.10;0.10;;;;;;;14.61;98.85;95022.81;4351437;32;20197;-61
2022/06/09 05:51:15;;;;;;;7.10;0.70;;;;;;;14.58;98.76;95026.91;4366823;32;20317;-61
2022/06/09 05:53:42;;;;;;;0.13;0.07;;;;;;;14.64;98.49;95030.94;4348787;32;20298;-61
2022/06/09 05:56:09;;;;;;;0.43;0.43;;;;;;;14.74;97.97;95032.47;4361341;32;20199;-61
2022/06/09 05:58:35;;;;;;;0.30;0.30;;;;;;;14.57;98.09;95037.91;4346008;32;20189;-61
2022/06/09 06:01:06;;;;;;;0.33;0.33;;;;;;;14.54;97.53;95038.59;4345353;32;20193;-61
2022/06/09 06:03:32;;;;;;;0.50;0.50;;;;;;;14.67;97.19;95034.88;4345652;32;20198;-61
2022/06/09 06:08:43;;;;;;;0.37;0.37;;;;;;;14.74;96.81;95048.47;4354204;32;20299;-61
2022/06/09 06:11:10;;;;;;;0.30;0.30;;;;;;;14.71;97.39;95054.47;4351546;32;20226;-61
2022/06/09 06:13:35;;;;;;;0.10;0.10;;;;;;;14.75;95.46;95048.16;4366665;32;20250;-61
2022/06/09 06:16:01;;;;;;;0.17;0.17;;;;;;;14.72;92.86;95056.03;4368793;32;20193;-61
2022/06/09 06:18:27;;;;;;;0.00;0.00;;;;;;;14.64;93.33;95062.22;4358064;32;20232;-61
2022/06/09 06:20:55;;;;;;;0.23;0.23;;;;;;;14.65;93.69;95058.44;4358987;32;20193;-60
2022/06/09 06:23:22;;;;;;;0.13;0.13;;;;;;;14.54;95.04;95057.25;4359376;32;20215;-62
2022/06/09 06:25:48;;;;;;;0.20;0.20;;;;;;;14.54;95.53;95065.28;4347501;32;20189;-61
2022/06/09 06:28:15;;;;;;;0.77;0.50;;;;;;;14.65;94.87;95059.22;4371469;32;20193;-61
2022/06/09 06:30:42;;;;;;;2.23;0.70;;;;;;;14.65;96.75;95055.75;4345831;32;20251;-61
2022/06/09 06:33:07;;;;;;;0.40;0.40;;;;;;;14.68;96.05;95071.91;4359833;32;20212;-61
2022/06/09 06:35:32;;;;;;;0.63;0.57;;;;;;;14.73;96.24;95065.62;4358867;32;20196;-61
2022/06/09 06:37:58;;;;;;;0.83;0.47;;;;;;;14.80;96.58;95076.53;4345804;32;20189;-61
2022/06/09 06:40:23;;;;;;;0.23;0.23;;;;;;;14.73;96.04;95071.75;4344549;32;20236;-61
2022/06/09 06:42:50;;;;;;;0.10;0.10;;;;;;;14.83;96.00;95075.88;4347229;32;20193;-61
2022/06/09 06:45:17;;;;;;;0.20;0.20;;;;;;;14.85;94.81;95084.37;4359106;32;20217;-61
2022/06/09 06:47:44;;;;;;;0.30;0.30;;;;;;;14.72;94.49;95085.41;4345146;32;20259;-61
2022/06/09 06:50:12;;;;;;;0.27;0.27;;;;;;;14.83;95.33;95083.13;4345167;32;20192;-61
2022/06/09 06:52:38;;;;;;;0.50;0.50;;;;;;;14.83;95.21;95089.25;4356929;32;20223;-61
2022/06/09 06:55:07;;;;;;;0.57;0.57;;;;;;;14.87;93.47;95086.72;4358294;32;20264;-61
2022/06/09 06:57:34;;;;;;;0.20;0.20;;;;;;;14.94;94.08;95087.75;4358153;32;20260;-61
2022/06/09 07:00:01;;;;;;;10.70;0.50;;;;;;;14.99;93.84;95086.75;4363751;32;20192;-61
2022/06/09 07:02:27;;;;;;;0.03;0.03;;;;;;;15.12;93.32;95078.50;4361738;32;20193;-61
2022/06/09 07:04:54;;;;;;;0.30;0.30;;;;;;;15.24;91.97;95090.34;4358358;32;20193;-61
2022/06/09 07:07:20;;;;;;;0.10;0.10;;;;;;;15.27;91.85;95089.69;4346902;32;20201;-61
2022/06/09 07:09:46;;;;;;;0.30;0.30;;;;;;;15.33;91.19;95081.12;4345380;32;20192;-61
2022/06/09 07:12:12;;;;;;;0.17;0.17;;;;;;;15.39;90.67;95092.37;4358686;32;20189;-61
2022/06/09 07:14:39;;;;;;;0.13;0.13;;;;;;;15.33;89.15;95093.72;4344882;32;20207;-61
2022/06/09 07:17:05;;;;;;;0.30;0.30;;;;;;;15.48;90.18;95093.09;4344515;32;20189;-61
2022/06/09 07:19:31;;;;;;;0.20;0.20;;;;;;;15.46;90.83;95095.31;4369056;32;20241;-61
2022/06/09 07:21:57;;;;;;;0.00;0.00;;;;;;;15.40;90.01;95102.75;4358540;32;20189;-61
2022/06/09 07:24:23;;;;;;;0.47;0.47;;;;;;;15.39;89.46;95098.50;4345743;32;20279;-62
2022/06/09 07:26:49;;;;;;;0.10;0.10;;;;;;;15.46;89.84;95100.66;4353178;32;20201;-61
2022/06/09 07:29:16;;;;;;;0.10;0.10;;;;;;;15.52;90.28;95095.91;4344760;32;20236;-61
2022/06/09 07:31:43;;;;;;;0.30;0.30;;;;;;;15.66;90.90;95101.75;4344378;32;20323;-61
2022/06/09 07:34:10;;;;;;;0.10;0.10;;;;;;;15.60;90.97;95103.84;4347260;32;20210;-61
2022/06/09 07:36:37;;;;;;;0.67;0.30;;;;;;;15.65;90.61;95106.31;4366086;32;20240;-61
2022/06/09 07:39:04;;;;;;;0.20;0.20;;;;;;;15.72;89.05;95103.91;4359134;32;20265;-61
2022/06/09 07:41:31;;;;;;;0.23;0.23;;;;;;;15.63;91.50;95103.19;4348753;32;20243;-61
2022/06/09 07:44:00;;;;;;;0.00;0.00;;;;;;;15.71;92.37;95101.56;4361732;32;20236;-61
2022/06/09 07:46:28;;;;;;;0.30;0.30;;;;;;;15.81;91.92;95101.13;4351536;32;20227;-61
2022/06/09 07:48:55;;;;;;;0.10;0.10;;;;;;;15.80;91.33;95102.22;4345361;32;20212;-61
2022/06/09 07:51:20;;;;;;;0.60;0.47;;;;;;;15.96;90.74;95100.50;4349749;32;20184;-61
2022/06/09 07:53:46;;;;;;;0.40;0.40;;;;;;;15.88;89.34;95098.69;4347792;32;20193;-61
2022/06/09 07:56:13;;;;;;;0.20;0.20;;;;;;;15.76;88.62;95104.03;4362596;32;20268;-61
2022/06/09 07:58:41;;;;;;;0.20;0.20;;;;;;;15.60;88.93;95105.75;4361397;32;20207;-61
2022/06/09 08:01:07;;;;;;;0.20;0.20;;;;;;;15.17;91.46;95119.50;4353414;32;20224;-61
2022/06/09 08:03:33;;;;;;;0.20;0.20;;;;;;;15.09;93.27;95134.47;4361684;32;20193;-62
2022/06/09 08:05:58;;;;;;;0.30;0.30;;;;;;;15.06;95.13;95132.44;4365183;32;20184;-62
2022/06/09 08:08:24;;;;;;;0.30;0.30;;;;;;;14.56;97.80;95135.12;4347502;32;20260;-61
2022/06/09 08:10:50;;;;;;;0.50;0.50;;;;;;;14.68;98.90;95137.91;4361866;32;20215;-61
2022/06/09 08:13:17;;;;;;;6.40;0.73;;;;;;;14.54;98.79;95148.03;4347279;32;20193;-61
2022/06/09 08:15:45;;;;;;;1.03;0.50;;;;;;;14.31;99.86;95140.25;4347963;32;20268;-61
2022/06/09 08:18:12;;;;;;;0.57;0.37;;;;;;;14.19;99.32;95144.69;4348672;32;20199;-61
2022/06/09 08:20:41;;;;;;;0.33;0.33;;;;;;;14.18;99.76;95149.25;4359434;32;20211;-61
2022/06/09 08:23:15;;;;;;;1.47;0.93;;;;;;;14.21;98.43;95153.16;4351951;32;20193;-62
2022/06/09 08:25:43;;;;;;;0.40;0.40;;;;;;;14.08;99.27;95161.06;4375526;32;20184;-61
2022/06/09 08:28:11;;;;;;;0.77;0.77;;;;;;;14.20;99.08;95160.37;4374520;32;20246;-61
2022/06/09 08:30:37;;;;;;;0.40;0.40;;;;;;;14.31;99.39;95155.50;4375076;32;20242;-61
2022/06/09 08:33:03;;;;;;;0.53;0.53;;;;;;;14.28;100.00;95167.56;4362306;32;20180;-61
2022/06/09 08:35:29;;;;;;;0.87;0.87;;;;;;;14.29;100.00;95163.81;4376255;32;20227;-61
2022/06/09 08:37:55;;;;;;;0.47;0.47;;;;;;;14.32;100.00;95168.50;4362117;32;20180;-61
2022/06/09 08:40:26;;;;;;;0.60;0.60;;;;;;;14.21;100.00;95179.84;4376853;32;20246;-61
2022/06/09 08:43:00;;;;;;;0.90;0.90;;;;;;;14.23;100.00;95175.75;4376534;32;20204;-61
2022/06/09 08:45:37;;;;;;;0.83;0.83;;;;;;;14.36;100.00;95182.75;4374060;32;20226;-61
2022/06/09 08:48:05;;;;;;;0.40;0.40;;;;;;;14.27;100.00;95182.03;4374215;32;20184;-61
2022/06/09 08:50:35;;;;;;;0.50;0.50;;;;;;;14.30;100.00;95192.06;4373031;32;20235;-61
2022/06/09 08:53:32;;;;;;;0.80;0.80;;;;;;;14.37;100.00;95200.34;4376210;32;20219;-61
2022/06/09 08:56:21;;;;;;;0.70;0.70;;;;;;;14.43;100.00;95199.09;4360997;32;20193;-61
2022/06/09 08:58:53;;;;;;;1.83;0.73;;;;;;;14.56;100.00;95193.84;4361651;32;20343;-61
2022/06/09 09:01:36;;;;;;;0.40;0.40;;;;;;;14.59;100.00;95210.00;4362307;32;20222;-61
2022/06/09 09:04:12;;;;;;;0.43;0.43;;;;;;;14.58;100.00;95213.78;4375728;32;20184;-61
2022/06/09 09:07:04;;;;;;;2.70;0.97;;;;;;;14.52;100.00;95214.31;4361561;32;20203;-61
2022/06/09 09:09:31;;;;;;;1.10;0.93;;;;;;;14.67;100.00;95211.88;4359870;32;20203;-62
2022/06/09 09:12:03;;;;;;;0.73;0.73;;;;;;;14.55;100.00;95219.75;4363480;32;20227;-62
2022/06/09 09:14:36;;;;;;;0.60;0.60;;;;;;;14.63;100.00;95210.16;4377876;32;20238;-62
2022/06/09 09:17:07;;;;;;;0.50;0.50;;;;;;;14.71;99.74;95217.38;4363746;32;20193;-62
2022/06/09 09:19:55;;;;;;;0.47;0.47;;;;;;;14.75;100.00;95215.63;4362151;32;20196;-62
2022/06/09 09:23:01;;;;;;;0.30;0.30;;;;;;;14.92;100.00;95220.09;4365127;32;20290;-61
2022/06/09 09:25:52;;;;;;;0.70;0.70;;;;;;;14.93;100.00;95221.66;4373067;32;20197;-62
2022/06/09 09:28:41;;;;;;;0.40;0.40;;;;;;;14.92;100.00;95228.88;4375658;32;20200;-61
2022/06/09 09:31:22;;;;;;;0.70;0.70;;;;;;;14.89;100.00;95228.72;4364035;32;20260;-61
2022/06/09 09:33:47;;;;;;;1.03;0.57;;;;;;;15.03;100.00;95227.38;4361722;32;20197;-62
2022/06/09 09:36:26;;;;;;;0.47;0.47;;;;;;;15.09;98.88;95223.44;4375061;32;20283;-62
2022/06/09 09:39:10;;;;;;;0.40;0.40;;;;;;;15.08;98.86;95229.87;4362384;32;20189;-61
2022/06/09 09:41:38;;;;;;;0.50;0.50;;;;;;;14.96;99.22;95213.78;4348625;32;20307;-62
2022/06/09 09:44:25;;;;;;;0.70;0.70;;;;;;;15.04;99.71;95218.28;4375172;32;20192;-61
2022/06/09 09:46:55;;;;;;;2.97;0.83;;;;;;;15.10;99.55;95226.88;4349077;32;20177;-61
2022/06/09 09:49:29;;;;;;;0.60;0.60;;;;;;;15.15;98.31;95223.25;4374993;32;20208;-61
2022/06/09 09:51:56;;;;;;;0.87;0.73;;;;;;;15.04;98.91;95231.63;4373040;32;20255;-61
2022/06/09 09:54:27;;;;;;;0.53;0.53;;;;;;;15.17;97.62;95235.19;4354811;32;20189;-61
2022/06/09 09:57:22;;;;;;;0.53;0.53;;;;;;;15.35;97.03;95233.19;4370400;32;20197;-62
2022/06/09 09:59:53;;;;;;;0.40;0.40;;;;;;;15.40;97.16;95246.31;4361996;32;20197;-61
2022/06/09 10:08:39;;;;;;;0.43;0.43;;;;;;;15.29;96.04;95237.94;4367956;32;20298;-61
2022/06/09 10:11:54;;;;;;;0.57;0.57;;;;;;;15.39;95.48;95253.56;4360588;32;20207;-61
2022/06/09 10:14:36;;;;;;;0.53;0.53;;;;;;;15.31;94.70;95261.66;4319701;33;20205;-61
2022/06/09 10:17:05;;;;;;;0.20;0.20;;;;;;;15.13;96.66;95282.37;4370983;32;20188;-62
2022/06/09 10:19:32;;;;;;;0.60;0.50;;;;;;;14.93;93.81;95277.75;4370301;32;20177;-62
2022/06/09 10:22:15;;;;;;;0.43;0.43;;;;;;;14.81;94.99;95280.28;4374434;32;20200;-62
2022/06/09 10:25:00;;;;;;;1.47;0.40;;;;;;;14.78;94.99;95279.03;4374529;32;20192;-62
2022/06/09 10:27:35;;;;;;;3.30;1.03;;;;;;;14.58;92.98;95288.53;4359012;32;20242;-62
2022/06/09 10:30:22;;;;;;;0.43;0.43;;;;;;;14.41;93.44;95284.03;4372804;32;20184;-62
2022/06/09 10:33:01;;;;;;;0.50;0.50;;;;;;;14.35;94.18;95290.59;4368271;32;20207;-61
2022/06/09 10:36:20;;;;;;;0.67;0.67;;;;;;;14.53;94.81;95285.28;4359080;32;20234;-61
2022/06/09 10:39:19;;;;;;;0.30;0.30;;;;;;;14.46;96.93;95279.62;4318318;33;20216;-61
2022/06/09 10:41:53;;;;;;;0.37;0.37;;;;;;;14.51;98.14;95290.16;4313867;33;20198;-61
2022/06/09 10:44:46;;;;;;;2.00;1.07;;;;;;;14.55;99.47;95289.19;4326667;32;20198;-62
2022/06/09 10:56:43;;;;;;;0.63;0.63;;;;;;;14.50;98.46;95284.03;4338561;32;20223;-63
2022/06/09 10:59:36;;;;;;;2.00;0.83;;;;;;;14.41;98.51;95288.59;4372983;32;20226;-62
2022/06/09 11:02:09;;;;;;;0.80;0.80;;;;;;;14.31;99.41;95281.69;4360063;32;20207;-62
2022/06/09 11:04:35;;;;;;;0.50;0.50;;;;;;;14.49;99.60;95285.13;4360843;32;20211;-62
2022/06/09 11:07:31;;;;;;;0.60;0.60;;;;;;;14.38;99.77;95287.31;4360256;32;20188;-62
2022/06/09 11:10:29;;;;;;;0.90;0.90;;;;;;;14.55;100.00;95283.09;4371463;32;20283;-63
2022/06/09 11:13:42;;;;;;;0.73;0.73;;;;;;;14.78;100.00;95279.81;4329571;32;20249;-63
2022/06/09 11:16:29;;;;;;;0.93;0.93;;;;;;;14.91;99.55;95283.41;4359675;32;20244;-62
2022/06/09 11:19:04;;;;;;;1.17;0.90;;;;;;;14.93;99.07;95289.22;4371741;32;20192;-63
2022/06/09 11:22:07;;;;;;;0.30;0.30;;;;;;;15.06;98.95;95282.06;4373023;32;20191;-62
2022/06/09 11:24:40;;;;;;;0.60;0.60;;;;;;;15.37;98.93;95281.75;4373069;32;20234;-62
2022/06/09 11:27:24;;;;;;;0.43;0.43;;;;;;;15.50;98.90;95285.28;4367130;32;20194;-62
2022/06/09 11:30:19;;;;;;;0.63;0.63;;;;;;;15.69;97.81;95283.75;4362243;32;20188;-62
2022/06/09 11:33:19;;;;;;;0.73;0.73;;;;;;;15.98;98.52;95284.78;4371585;32;20302;-61
2022/06/09 11:36:07;;;;;;;0.50;0.50;;;;;;;16.21;95.77;95277.94;4356427;32;20283;-61
2022/06/09 11:39:11;;;;;;;0.30;0.30;;;;;;;16.21;95.86;95279.88;4324300;32;20238;-61
2022/06/09 11:42:03;;;;;;;0.97;0.90;;;;;;;16.46;94.72;95276.91;4336130;32;20269;-61
2022/06/09 11:44:35;;;;;;;0.87;0.87;;;;;;;16.65;93.66;95272.94;4370266;32;20226;-62
2022/06/09 11:47:10;;;;;;;0.77;0.77;;;;;;;16.78;94.25;95269.97;4373056;32;20252;-62
2022/06/09 11:49:41;;;;;;;0.77;0.77;;;;;;;16.81;95.95;95268.53;4362835;32;20212;-61
2022/06/09 11:52:09;;;;;;;0.40;0.40;;;;;;;16.41;91.59;95279.03;4355344;32;20211;-61
2022/06/09 11:54:53;;;;;;;0.40;0.40;;;;;;;16.66;93.03;95274.53;4361070;32;20208;-61
2022/06/09 11:57:36;;;;;;;0.53;0.53;;;;;;;16.85;93.07;95261.38;4359330;32;20197;-61
2022/06/09 12:00:21;;;;;;;0.40;0.40;;;;;;;16.91;93.94;95267.28;4352659;32;20189;-62
2022/06/09 12:03:25;;;;;;;0.90;0.57;;;;;;;16.77;93.96;95275.66;4360197;32;20303;-62
2022/06/09 12:05:59;;;;;;;0.83;0.83;;;;;;;16.74;93.58;95281.69;4358145;32;20247;-61
2022/06/09 12:08:36;;;;;;;0.50;0.50;;;;;;;16.67;94.05;95290.25;4363647;32;20212;-62
2022/06/09 12:11:23;;;;;;;0.30;0.30;;;;;;;16.48;95.66;95298.78;4363836;32;20188;-61
2022/06/09 12:14:00;;;;;;;0.53;0.53;;;;;;;15.74;93.38;95296.16;4364973;32;20206;-61
2022/06/09 12:16:35;;;;;;;0.20;0.20;;;;;;;15.87;92.86;95305.00;4354473;32;20249;-61